Time;durP1;ratioP1;P1;durP2;ratioP2;P2;SDS_P1;SDS_P2;PMS_P1;PMS_P2;Temp;Humidity;BMP_temperature;BMP_pressure;BME280_temperature;BME280_humidity;BME280_pressure;Samples;Min_cycle;Max_cycle;Signal;HPM_P1;HPM_P2
2022/08/12 00:44:53;;;;;;;4.43;2.60;;;23.00;51.70;;;;;;9176569;19;20484;-68
2022/08/12 00:47:59;;;;;;;7.93;2.75;;;22.90;51.80;;;;;;9182875;19;20026;-65
2022/08/12 00:51:05;;;;;;;4.00;2.38;;;22.90;52.00;;;;;;9180510;19;20362;-67
2022/08/12 00:54:13;;;;;;;11.35;2.88;;;22.90;52.20;;;;;;9182040;19;20074;-67
2022/08/12 00:57:20;;;;;;;7.85;2.58;;;22.80;52.30;;;;;;9181824;19;20376;-66
2022/08/12 01:00:27;;;;;;;4.13;2.42;;;22.80;52.40;;;;;;9180549;19;20014;-65
2022/08/12 01:13:44;;;;;;;5.78;2.35;;;22.60;52.70;;;;;;9178809;19;20015;-65
2022/08/12 01:16:50;;;;;;;4.32;2.10;;;22.60;52.90;;;;;;9178341;19;20007;-66
2022/08/12 01:19:57;;;;;;;4.03;2.58;;;22.60;52.80;;;;;;9180183;19;20017;-64
2022/08/12 01:23:32;;;;;;;4.55;2.80;;;22.50;53.00;;;;;;9178996;19;20380;-66
2022/08/12 01:26:41;;;;;;;3.63;2.17;;;22.50;53.40;;;;;;9181098;19;20023;-67
2022/08/12 01:29:48;;;;;;;4.45;2.65;;;22.50;53.20;;;;;;9179168;19;20014;-65
2022/08/12 01:32:55;;;;;;;6.45;2.90;;;22.50;53.20;;;;;;9179245;19;20018;-65
2022/08/12 01:36:05;;;;;;;3.70;2.40;;;22.40;53.20;;;;;;9178462;19;20145;-66
2022/08/12 01:39:15;;;;;;;7.88;2.65;;;22.40;53.40;;;;;;9178232;19;20490;-64
2022/08/12 01:42:24;;;;;;;5.78;2.65;;;22.40;53.40;;;;;;9179843;19;20531;-65
2022/08/12 01:45:33;;;;;;;4.03;2.13;;;22.30;53.60;;;;;;9175903;19;20082;-65
2022/08/12 01:49:05;;;;;;;6.13;2.47;;;22.30;53.60;;;;;;9180730;19;20470;-65
2022/08/12 01:52:25;;;;;;;6.57;2.50;;;22.30;53.80;;;;;;9179112;19;20026;-66
2022/08/12 01:55:36;;;;;;;6.13;2.95;;;22.20;53.80;;;;;;9177889;19;20356;-67
2022/08/12 02:02:07;;;;;;;5.50;2.42;;;22.20;53.80;;;;;;9177630;19;20010;-66
2022/08/12 02:12:17;;;;;;;5.82;2.38;;;22.00;54.00;;;;;;9175121;19;20468;-66
2022/08/12 02:15:45;;;;;;;3.45;2.38;;;22.00;54.10;;;;;;9174394;19;20053;-66
2022/08/12 02:19:01;;;;;;;8.57;2.83;;;22.00;54.40;;;;;;9176952;19;20377;-66
2022/08/12 02:22:29;;;;;;;5.00;2.63;;;22.00;54.20;;;;;;9177462;19;20082;-65
2022/08/12 02:25:39;;;;;;;5.85;2.38;;;21.90;54.40;;;;;;9174589;19;20463;-65
2022/08/12 02:28:44;;;;;;;4.97;2.58;;;21.90;54.30;;;;;;9177046;19;20049;-65
2022/08/12 02:31:54;;;;;;;4.10;2.33;;;21.90;54.40;;;;;;9178138;19;20344;-68
2022/08/12 02:34:59;;;;;;;5.82;2.63;;;21.80;54.50;;;;;;9177470;19;20357;-67
2022/08/12 02:38:07;;;;;;;15.32;3.17;;;21.80;54.40;;;;;;9176598;19;20022;-65
2022/08/12 02:41:16;;;;;;;9.55;2.60;;;21.80;54.60;;;;;;9177889;19;20439;-66
2022/08/12 02:44:25;;;;;;;4.30;3.15;;;21.80;54.60;;;;;;9176796;19;20476;-68
2022/08/12 02:47:39;;;;;;;8.05;2.92;;;21.70;54.70;;;;;;9176247;19;20025;-66
2022/08/12 02:51:08;;;;;;;7.55;3.05;;;21.70;54.80;;;;;;9177563;19;20015;-66
2022/08/12 02:54:14;;;;;;;6.28;3.38;;;21.60;54.80;;;;;;9177450;19;20018;-67
2022/08/12 02:57:20;;;;;;;6.70;2.90;;;21.60;54.80;;;;;;9178228;19;20349;-67
2022/08/12 03:00:27;;;;;;;5.38;2.50;;;21.60;54.80;;;;;;9178881;19;20023;-66
2022/08/12 03:03:36;;;;;;;5.15;3.22;;;21.50;54.90;;;;;;9177717;19;20015;-66
2022/08/12 03:06:45;;;;;;;4.53;2.72;;;21.50;55.00;;;;;;9173611;19;20486;-67
2022/08/12 03:09:53;;;;;;;6.88;3.40;;;21.50;55.00;;;;;;9182486;19;20015;-68
2022/08/12 03:13:13;;;;;;;6.28;3.00;;;21.40;55.00;;;;;;9186897;19;20015;-67
2022/08/12 03:16:19;;;;;;;6.13;3.15;;;21.40;55.10;;;;;;9184181;19;20360;-67
2022/08/12 03:19:28;;;;;;;6.22;2.92;;;21.40;55.10;;;;;;9184544;19;20018;-67
2022/08/12 03:22:36;;;;;;;4.78;2.97;;;21.40;55.20;;;;;;9185033;19;20492;-68
2022/08/12 03:25:43;;;;;;;6.93;3.20;;;21.30;55.20;;;;;;9182864;19;20022;-67
2022/08/12 03:28:52;;;;;;;8.00;2.88;;;21.30;55.30;;;;;;9183781;19;20098;-67
2022/08/12 03:32:01;;;;;;;5.30;3.28;;;21.30;55.30;;;;;;9183066;19;20026;-66
2022/08/12 03:35:15;;;;;;;3.92;2.92;;;21.30;55.40;;;;;;9185332;19;20015;-67
2022/08/12 03:38:42;;;;;;;6.40;2.72;;;21.20;55.50;;;;;;9185396;19;20011;-66
2022/08/12 03:41:58;;;;;;;4.05;2.85;;;21.20;55.40;;;;;;9185627;19;20459;-67
2022/08/12 04:02:16;;;;;;;5.75;3.10;;;21.00;55.60;;;;;;9184162;19;20019;-67
2022/08/12 04:05:21;;;;;;;7.63;3.22;;;21.00;55.70;;;;;;9180911;19;20021;-67
2022/08/12 04:08:30;;;;;;;6.50;3.17;;;20.90;55.70;;;;;;9181137;19;20015;-66
2022/08/12 04:14:58;;;;;;;7.88;3.60;;;20.90;55.90;;;;;;9184345;19;20026;-66
2022/08/12 04:18:03;;;;;;;6.80;3.33;;;20.80;55.80;;;;;;9182039;19;20026;-67
2022/08/12 04:21:11;;;;;;;5.95;3.55;;;20.80;55.90;;;;;;9180208;19;20042;-67
2022/08/12 04:24:23;;;;;;;5.70;3.25;;;20.80;56.00;;;;;;9181662;19;20014;-65
2022/08/12 04:27:30;;;;;;;7.05;3.22;;;20.80;56.10;;;;;;9181665;19;20006;-65
2022/08/12 04:30:38;;;;;;;6.68;3.10;;;20.70;56.00;;;;;;9182758;19;20105;-67
2022/08/12 04:33:44;;;;;;;4.40;2.78;;;20.70;56.10;;;;;;9179233;19;20014;-66
2022/08/12 04:36:49;;;;;;;9.07;3.47;;;20.70;56.20;;;;;;9175703;19;20019;-68
2022/08/12 04:39:58;;;;;;;8.00;3.58;;;20.60;56.20;;;;;;9174285;19;20032;-66
2022/08/12 04:43:03;;;;;;;8.88;2.92;;;20.60;56.30;;;;;;9176221;19;20499;-68
2022/08/12 04:46:10;;;;;;;5.85;3.28;;;20.60;56.30;;;;;;9173841;19;20085;-67
2022/08/12 04:49:18;;;;;;;8.57;3.17;;;20.50;56.30;;;;;;9176531;19;20480;-67
2022/08/12 04:52:23;;;;;;;5.10;3.28;;;20.60;56.50;;;;;;9175267;19;20022;-67
2022/08/12 04:55:32;;;;;;;8.07;3.03;;;20.50;56.40;;;;;;9181187;19;20013;-66
2022/08/12 04:58:37;;;;;;;6.13;3.25;;;20.50;56.50;;;;;;9180481;19;20026;-68
2022/08/12 05:01:42;;;;;;;5.25;3.15;;;20.50;56.60;;;;;;9180248;19;20029;-67
2022/08/12 05:04:50;;;;;;;6.45;3.15;;;20.50;56.60;;;;;;9179162;19;20566;-66
2022/08/12 05:07:55;;;;;;;6.50;3.35;;;20.40;56.70;;;;;;9181542;19;20379;-66
2022/08/12 05:11:06;;;;;;;7.78;3.33;;;20.40;56.70;;;;;;9177539;19;20013;-66
2022/08/12 05:14:15;;;;;;;5.88;3.53;;;20.40;56.80;;;;;;9181424;19;20022;-65
2022/08/12 05:17:23;;;;;;;4.50;3.15;;;20.40;56.80;;;;;;9181388;19;20019;-67
2022/08/12 05:20:32;;;;;;;6.85;2.97;;;20.40;56.80;;;;;;9182117;19;20506;-67
2022/08/12 05:23:42;;;;;;;3.70;3.08;;;20.40;56.80;;;;;;9178662;19;20700;-68
2022/08/12 05:26:51;;;;;;;9.52;3.20;;;20.40;56.90;;;;;;9177459;19;20023;-69
2022/08/12 05:29:56;;;;;;;8.32;3.38;;;20.30;56.90;;;;;;9178348;19;20081;-67
2022/08/12 05:33:14;;;;;;;4.05;2.95;;;20.40;57.00;;;;;;9179271;19;20021;-68
2022/08/12 05:36:20;;;;;;;6.75;3.28;;;20.30;57.00;;;;;;9178975;19;20021;-67
2022/08/12 05:39:26;;;;;;;10.70;3.20;;;20.40;57.10;;;;;;9180345;19;20056;-68
2022/08/12 05:42:34;;;;;;;6.93;3.35;;;20.40;57.10;;;;;;9180435;19;20025;-66
2022/08/12 05:45:39;;;;;;;7.88;3.38;;;20.40;57.20;;;;;;9179796;19;20025;-66
2022/08/12 05:48:50;;;;;;;9.25;3.72;;;20.40;57.10;;;;;;9178448;19;20015;-66
2022/08/12 05:51:55;;;;;;;6.35;3.20;;;20.50;57.20;;;;;;9178990;19;20650;-65
2022/08/12 05:55:01;;;;;;;4.47;3.38;;;20.50;57.10;;;;;;9180333;19;20007;-65
2022/08/12 05:58:09;;;;;;;6.20;3.30;;;20.60;57.10;;;;;;9178267;19;20019;-65
2022/08/12 06:01:14;;;;;;;9.48;3.15;;;20.70;57.20;;;;;;9177518;19;20014;-64
2022/08/12 06:04:40;;;;;;;7.70;3.70;;;20.80;57.10;;;;;;9177271;19;20015;-68
2022/08/12 06:07:46;;;;;;;7.80;3.50;;;21.00;57.20;;;;;;9177665;19;20369;-65
2022/08/12 06:11:07;;;;;;;6.45;3.45;;;21.10;57.20;;;;;;9174154;19;20022;-67
2022/08/12 06:14:18;;;;;;;7.25;3.20;;;21.20;57.00;;;;;;9178259;19;20486;-67
2022/08/12 06:17:29;;;;;;;8.75;3.30;;;21.40;57.00;;;;;;9178282;19;20010;-67
2022/08/12 06:20:35;;;;;;;13.15;3.97;;;21.60;57.00;;;;;;9177727;19;20019;-66
2022/08/12 06:23:42;;;;;;;5.40;3.08;;;21.70;56.90;;;;;;9178893;19;20488;-66
2022/08/12 06:26:47;;;;;;;7.55;3.65;;;21.90;56.70;;;;;;9174323;19;20018;-66
2022/08/12 06:29:55;;;;;;;7.57;3.28;;;22.10;56.60;;;;;;9178924;19;20484;-67
2022/08/12 06:33:15;;;;;;;4.95;3.05;;;22.30;56.50;;;;;;9177673;19;20014;-65
2022/08/12 06:36:27;;;;;;;14.02;4.05;;;22.40;56.20;;;;;;9176925;19;20422;-64
2022/08/12 06:39:36;;;;;;;11.38;3.40;;;22.60;56.10;;;;;;9177064;19;20018;-64
2022/08/12 06:42:51;;;;;;;6.80;2.95;;;22.80;56.00;;;;;;9181353;19;20494;-65
2022/08/12 06:46:04;;;;;;;5.95;3.25;;;23.00;55.80;;;;;;9183624;19;20017;-63
2022/08/12 06:49:11;;;;;;;8.85;3.47;;;23.20;55.70;;;;;;9185270;19;20104;-64
2022/08/12 06:52:20;;;;;;;11.73;3.63;;;23.40;55.60;;;;;;9187544;19;20108;-65
2022/08/12 06:55:25;;;;;;;4.85;3.00;;;23.50;55.30;;;;;;9186158;19;20019;-66
2022/08/12 06:58:38;;;;;;;9.75;3.40;;;23.70;55.20;;;;;;9185445;19;20021;-67
2022/08/12 07:01:46;;;;;;;3.38;2.60;;;23.90;55.00;;;;;;9186644;19;20472;-65
2022/08/12 07:04:56;;;;;;;3.20;2.63;;;24.10;54.90;;;;;;9185158;19;20045;-67
2022/08/12 07:08:11;;;;;;;7.82;3.50;;;24.30;54.70;;;;;;9181683;19;20018;-66
2022/08/12 07:11:17;;;;;;;7.35;3.45;;;24.50;54.60;;;;;;9180108;19;20066;-66
2022/08/12 07:14:23;;;;;;;6.15;2.83;;;24.70;54.40;;;;;;9182740;19;20045;-66
2022/08/12 07:17:34;;;;;;;10.85;3.05;;;24.90;54.20;;;;;;9180053;19;20331;-67
2022/08/12 07:20:43;;;;;;;8.43;2.90;;;25.10;54.00;;;;;;9179066;19;20017;-66
2022/08/12 07:23:57;;;;;;;4.10;3.05;;;25.30;53.80;;;;;;9175975;19;20023;-66
2022/08/12 07:27:02;;;;;;;10.00;3.15;;;25.50;53.70;;;;;;9177390;19;20022;-64
2022/08/12 07:30:09;;;;;;;4.15;2.72;;;25.70;53.40;;;;;;9182405;19;20022;-66
2022/08/12 07:33:21;;;;;;;9.50;2.80;;;25.80;53.10;;;;;;9173242;19;20654;-64
2022/08/12 07:36:26;;;;;;;8.00;2.70;;;26.00;53.60;;;;;;9183946;19;20399;-66
2022/08/12 07:39:31;;;;;;;5.60;2.53;;;26.20;52.80;;;;;;9179583;19;20023;-63
2022/08/12 07:42:36;;;;;;;7.75;2.70;;;26.40;52.70;;;;;;9182543;19;20019;-64
2022/08/12 07:45:42;;;;;;;8.57;2.53;;;26.50;52.50;;;;;;9182303;19;20015;-64
2022/08/12 07:48:52;;;;;;;3.70;2.00;;;26.70;52.30;;;;;;9178566;19;20019;-63
2022/08/12 07:51:57;;;;;;;4.35;2.00;;;26.80;52.00;;;;;;9176432;19;20014;-63
2022/08/12 07:55:02;;;;;;;7.35;2.70;;;27.00;51.90;;;;;;9180451;19;20023;-62
2022/08/12 07:58:07;;;;;;;6.90;2.13;;;27.20;51.80;;;;;;9178424;19;20026;-63
2022/08/12 08:01:16;;;;;;;10.18;2.63;;;27.30;51.60;;;;;;9174860;19;20352;-66
2022/08/12 08:07:41;;;;;;;13.90;2.72;;;27.60;51.20;;;;;;9173632;19;20015;-66
2022/08/12 08:10:47;;;;;;;8.32;2.30;;;27.80;51.80;;;;;;9174355;19;20515;-62
2022/08/12 08:13:49;;;;;;;5.30;2.17;;;28.00;51.00;;;;;;9178367;19;20018;-63
2022/08/12 08:16:54;;;;;;;3.47;2.35;;;28.10;50.90;;;;;;9175116;19;20502;-64
2022/08/12 08:20:02;;;;;;;6.00;2.00;;;28.30;50.70;;;;;;9176878;19;20018;-68
2022/08/12 08:23:12;;;;;;;4.60;2.00;;;28.50;50.50;;;;;;9175245;19;20114;-65
2022/08/12 08:26:21;;;;;;;6.80;2.25;;;28.60;50.20;;;;;;9180557;19;20022;-65
2022/08/12 08:29:34;;;;;;;6.63;2.40;;;28.80;50.20;;;;;;9177390;19;20018;-65
2022/08/12 08:32:41;;;;;;;5.10;2.45;;;28.90;50.00;;;;;;9183012;19;20018;-63
2022/08/12 08:36:01;;;;;;;6.13;2.22;;;29.10;49.90;;;;;;9176313;19;20027;-66
2022/08/12 08:39:07;;;;;;;9.15;2.35;;;29.30;49.70;;;;;;9175429;19;20491;-65
2022/08/12 08:45:33;;;;;;;11.25;1.92;;;29.60;49.50;;;;;;9181403;19;20044;-65
2022/08/12 08:48:39;;;;;;;4.72;1.98;;;29.80;49.40;;;;;;9176894;19;20465;-67
2022/08/12 08:51:49;;;;;;;8.18;2.33;;;29.90;49.20;;;;;;9177642;19;20022;-66
2022/08/12 08:54:54;;;;;;;5.45;2.15;;;30.10;49.00;;;;;;9178486;19;20842;-69
2022/08/12 08:58:00;;;;;;;5.05;1.83;;;30.30;48.90;;;;;;9178275;19;20037;-68
2022/08/12 09:01:10;;;;;;;3.70;1.95;;;30.40;48.60;;;;;;9177230;19;20019;-68
2022/08/12 09:04:23;;;;;;;10.35;2.15;;;30.50;48.40;;;;;;9174936;19;20011;-68
2022/08/12 09:07:54;;;;;;;3.95;2.30;;;30.70;48.40;;;;;;9168076;19;20604;-68
2022/08/12 09:15:00;;;;;;;5.40;2.10;;;31.00;47.90;;;;;;9163052;19;20025;-70
2022/08/12 09:18:23;;;;;;;13.90;2.40;;;31.20;47.80;;;;;;9173161;19;20018;-68
2022/08/12 09:21:40;;;;;;;10.65;1.92;;;31.40;47.70;;;;;;9171846;19;20050;-68
2022/08/12 09:25:09;;;;;;;1.75;1.65;;;31.60;47.40;;;;;;9170169;19;20038;-69
2022/08/12 09:28:31;;;;;;;2.45;1.80;;;31.80;47.10;;;;;;9166573;19;20085;-68
2022/08/12 09:31:36;;;;;;;7.78;2.05;;;31.90;46.80;;;;;;9167598;19;20571;-68
2022/08/12 09:35:02;;;;;;;2.92;1.70;;;32.10;46.60;;;;;;9172359;19;20026;-69
2022/08/12 09:38:07;;;;;;;5.78;1.90;;;32.20;46.30;;;;;;9172239;19;20498;-69
2022/08/12 09:41:42;;;;;;;11.27;1.80;;;32.40;46.00;;;;;;9172543;19;20042;-70
2022/08/12 09:45:22;;;;;;;2.97;1.83;;;32.50;45.40;;;;;;9168990;19;20018;-70
2022/08/12 09:48:52;;;;;;;4.10;1.83;;;32.70;45.40;;;;;;9177917;19;20030;-69
2022/08/12 09:52:01;;;;;;;6.28;1.73;;;32.80;45.20;;;;;;9177419;19;20033;-70
2022/08/12 09:55:08;;;;;;;8.77;1.55;;;32.90;44.80;;;;;;9176537;19;20025;-67
2022/08/12 09:58:41;;;;;;;8.05;2.22;;;33.00;44.60;;;;;;9174987;19;20093;-72
2022/08/12 10:02:06;;;;;;;2.83;1.73;;;33.10;44.30;;;;;;9176845;19;20015;-70
2022/08/12 10:05:35;;;;;;;7.78;2.08;;;33.20;44.10;;;;;;9178482;19;20018;-71
2022/08/12 10:09:00;;;;;;;7.72;1.88;;;33.30;43.90;;;;;;9176664;19;20014;-68
2022/08/12 10:15:43;;;;;;;2.33;1.73;;;33.50;43.20;;;;;;9178026;19;20026;-70
2022/08/12 10:19:15;;;;;;;2.38;2.05;;;33.50;42.80;;;;;;9181951;19;20022;-72
2022/08/12 10:22:22;;;;;;;2.33;1.83;;;33.60;42.80;;;;;;9184822;19;20026;-70
2022/08/12 10:33:11;;;;;;;5.13;1.77;;;33.80;42.20;;;;;;9188641;19;20018;-69
2022/08/12 10:36:26;;;;;;;3.47;1.80;;;33.90;41.90;;;;;;9186912;19;20019;-69
2022/08/12 10:39:49;;;;;;;6.03;1.73;;;34.10;42.00;;;;;;9186818;19;20110;-73
2022/08/12 10:46:59;;;;;;;6.10;1.85;;;34.30;41.50;;;;;;9186455;19;20025;-71
2022/08/12 10:50:08;;;;;;;2.97;1.90;;;34.40;41.20;;;;;;9188017;19;20018;-71
2022/08/12 10:53:34;;;;;;;3.92;1.70;;;34.50;40.80;;;;;;9185900;19;20022;-72
2022/08/12 10:56:52;;;;;;;4.40;1.90;;;34.60;40.80;;;;;;9187059;19;20468;-72
2022/08/12 10:59:58;;;;;;;4.07;1.70;;;34.60;40.40;;;;;;9187056;19;20096;-74
2022/08/12 11:03:24;;;;;;;4.28;1.85;;;34.70;40.30;;;;;;9186892;19;20405;-74
2022/08/12 11:06:55;;;;;;;10.93;1.80;;;34.80;40.10;;;;;;9185818;19;20018;-68
2022/08/12 11:10:27;;;;;;;5.28;1.80;;;34.90;39.90;;;;;;9185119;19;20022;-70
2022/08/12 11:13:32;;;;;;;3.85;1.73;;;35.00;39.80;;;;;;9186713;19;20035;-70
2022/08/12 11:16:56;;;;;;;9.52;2.05;;;35.00;39.60;;;;;;9186289;19;20891;-69
2022/08/12 11:20:25;;;;;;;7.13;1.80;;;35.10;40.10;;;;;;9183879;19;20523;-66
2022/08/12 11:23:37;;;;;;;6.10;1.90;;;35.10;39.30;;;;;;9184119;19;20104;-74
2022/08/12 11:26:45;;;;;;;5.55;1.77;;;35.20;39.10;;;;;;9183143;19;20022;-69
2022/08/12 11:29:56;;;;;;;8.88;2.38;;;35.10;38.90;;;;;;9182365;19;20014;-68
2022/08/12 11:33:14;;;;;;;8.25;2.20;;;35.10;38.60;;;;;;9174692;19;20025;-66
2022/08/12 11:36:40;;;;;;;2.78;1.90;;;35.10;38.60;;;;;;9176201;19;20371;-68
2022/08/12 11:40:02;;;;;;;3.38;2.30;;;35.10;38.50;;;;;;9177872;19;20031;-68
2022/08/12 11:43:08;;;;;;;6.80;2.13;;;35.10;38.30;;;;;;9177202;19;20022;-69
2022/08/12 11:46:27;;;;;;;4.20;1.67;;;35.10;38.40;;;;;;9178252;19;20120;-66
2022/08/12 11:49:34;;;;;;;2.75;1.55;;;35.10;38.30;;;;;;9176103;19;20467;-67
2022/08/12 11:52:43;;;;;;;3.33;2.00;;;35.10;38.20;;;;;;9177280;19;20018;-66
2022/08/12 11:56:03;;;;;;;5.65;1.70;;;35.10;38.10;;;;;;9177556;19;20022;-68
2022/08/12 11:59:09;;;;;;;4.65;1.70;;;35.20;38.00;;;;;;9176321;19;20022;-68
2022/08/12 12:02:36;;;;;;;4.88;1.83;;;35.20;38.00;;;;;;9176654;19;20662;-68
2022/08/12 12:05:44;;;;;;;3.90;1.70;;;35.30;37.90;;;;;;9178149;19;20022;-70
2022/08/12 12:08:50;;;;;;;9.15;2.10;;;35.30;37.70;;;;;;9181350;19;20022;-70
2022/08/12 12:12:03;;;;;;;6.07;1.73;;;35.30;37.60;;;;;;9179591;19;20011;-69
2022/08/12 12:15:14;;;;;;;3.10;1.65;;;35.30;37.40;;;;;;9183384;19;20022;-68
2022/08/12 12:18:33;;;;;;;2.83;1.70;;;35.30;37.40;;;;;;9182005;19;20020;-68
2022/08/12 12:21:38;;;;;;;5.45;1.80;;;35.40;37.40;;;;;;9181644;19;20508;-69
2022/08/12 12:24:53;;;;;;;7.13;1.98;;;35.40;37.30;;;;;;9183142;19;20011;-69
2022/08/12 12:28:01;;;;;;;8.30;1.90;;;35.50;37.40;;;;;;9182415;19;20010;-68
2022/08/12 12:31:14;;;;;;;3.53;1.58;;;35.60;37.30;;;;;;9180734;19;20484;-71
2022/08/12 12:34:44;;;;;;;5.18;1.65;;;35.60;37.20;;;;;;9178135;19;20636;-70
2022/08/12 12:38:21;;;;;;;7.75;2.20;;;35.70;36.90;;;;;;9181683;19;20778;-66
2022/08/12 12:41:30;;;;;;;7.57;1.45;;;35.80;37.10;;;;;;9180673;19;20047;-69
2022/08/12 12:45:02;;;;;;;3.92;1.80;;;35.80;37.00;;;;;;9180814;19;20015;-71
2022/08/12 12:48:23;;;;;;;3.70;1.70;;;35.90;36.80;;;;;;9180192;19;20470;-69
2022/08/12 12:51:32;;;;;;;3.47;1.65;;;35.90;36.70;;;;;;9181227;19;20022;-70
2022/08/12 12:54:58;;;;;;;4.68;1.42;;;35.90;36.70;;;;;;9182693;19;20480;-68
2022/08/12 12:58:10;;;;;;;5.20;1.90;;;36.00;36.60;;;;;;9181277;19;20060;-69
2022/08/12 13:01:32;;;;;;;10.10;2.10;;;36.00;36.60;;;;;;9220806;19;24436;-69
2022/08/12 13:04:49;;;;;;;7.68;1.95;;;36.00;36.30;;;;;;9221931;19;20026;-68
2022/08/12 13:08:00;;;;;;;4.50;1.70;;;36.00;36.20;;;;;;9224916;19;20018;-72
2022/08/12 13:11:10;;;;;;;5.80;1.60;;;36.00;36.20;;;;;;9221037;19;20122;-68
2022/08/12 13:14:20;;;;;;;8.10;2.03;;;36.00;36.10;;;;;;9223413;19;20010;-69
2022/08/12 13:17:37;;;;;;;3.03;1.73;;;36.00;36.00;;;;;;9221587;19;20014;-71
2022/08/12 13:21:02;;;;;;;2.83;1.65;;;35.90;35.90;;;;;;9221484;19;20053;-71
2022/08/12 13:24:07;;;;;;;2.95;1.60;;;35.90;36.00;;;;;;9223228;19;20014;-71
2022/08/12 13:27:15;;;;;;;3.72;1.77;;;35.90;36.00;;;;;;9223045;19;20483;-69
2022/08/12 13:30:25;;;;;;;3.72;1.85;;;35.90;35.90;;;;;;9221409;19;20055;-71
2022/08/12 13:33:37;;;;;;;5.55;2.08;;;35.90;35.80;;;;;;9222850;19;20014;-71
2022/08/12 13:37:03;;;;;;;5.25;1.80;;;35.80;35.70;;;;;;9221174;19;20336;-69
2022/08/12 13:40:14;;;;;;;7.25;2.03;;;35.80;35.80;;;;;;9218473;19;20011;-72
2022/08/12 13:43:20;;;;;;;7.65;2.10;;;35.80;35.80;;;;;;9223126;19;20806;-69
2022/08/12 13:46:45;;;;;;;5.32;2.30;;;35.80;35.80;;;;;;9220177;19;20033;-70
2022/08/12 13:50:11;;;;;;;4.78;2.03;;;35.70;35.70;;;;;;9221487;19;20385;-73
2022/08/12 13:53:19;;;;;;;8.32;2.00;;;35.70;35.50;;;;;;9219515;19;20018;-70
2022/08/12 13:56:43;;;;;;;7.28;2.00;;;35.70;35.70;;;;;;9218321;19;20006;-70
2022/08/12 13:59:55;;;;;;;5.28;1.73;;;35.60;35.60;;;;;;9218240;19;20014;-70
2022/08/12 14:03:06;;;;;;;4.57;1.55;;;35.60;35.60;;;;;;9220805;19;20061;-72
2022/08/12 14:06:17;;;;;;;3.25;1.70;;;35.60;35.70;;;;;;9212235;19;20105;-71
2022/08/12 14:09:23;;;;;;;6.32;1.63;;;35.60;35.50;;;;;;9207986;19;20508;-71
2022/08/12 14:12:39;;;;;;;4.70;2.00;;;35.50;35.50;;;;;;9178923;19;20082;-71
2022/08/12 14:16:01;;;;;;;4.28;1.67;;;35.50;35.40;;;;;;9176303;19;20023;-69
2022/08/12 14:19:07;;;;;;;3.65;1.52;;;35.50;35.30;;;;;;9176489;19;20115;-70
2022/08/12 14:22:30;;;;;;;7.03;1.63;;;35.50;35.20;;;;;;9179524;19;20019;-70
2022/08/12 14:25:38;;;;;;;10.07;1.63;;;35.40;35.00;;;;;;9179474;19;20376;-71
2022/08/12 14:28:45;;;;;;;5.05;2.10;;;35.30;35.00;;;;;;9177451;19;20031;-69
2022/08/12 14:32:01;;;;;;;5.15;1.73;;;35.30;35.00;;;;;;9178212;19;20106;-72
2022/08/12 14:35:09;;;;;;;4.00;1.80;;;35.20;35.00;;;;;;9176577;19;20017;-70
2022/08/12 14:38:38;;;;;;;3.38;1.50;;;35.20;35.00;;;;;;9174976;19;20351;-69
2022/08/12 14:41:43;;;;;;;5.63;1.60;;;35.10;34.60;;;;;;9172848;19;20015;-70
2022/08/12 14:45:00;;;;;;;5.32;1.60;;;35.00;34.80;;;;;;9177590;19;20018;-70
2022/08/12 14:48:07;;;;;;;3.38;1.42;;;34.90;34.70;;;;;;9176271;19;20025;-69
2022/08/12 14:51:13;;;;;;;4.60;1.38;;;34.90;34.60;;;;;;9176249;19;20017;-70
2022/08/12 14:54:44;;;;;;;4.60;1.23;;;34.80;34.60;;;;;;9174282;19;20104;-70
2022/08/12 14:58:11;;;;;;;3.28;1.05;;;34.70;34.40;;;;;;9175260;19;20023;-70
2022/08/12 15:04:38;;;;;;;4.88;1.48;;;34.60;34.30;;;;;;9177253;19;20018;-70
2022/08/12 15:07:49;;;;;;;2.22;1.45;;;34.50;34.50;;;;;;9168782;19;20011;-70
2022/08/12 15:11:12;;;;;;;10.25;1.50;;;34.50;34.30;;;;;;9171150;19;20585;-71
2022/08/12 15:14:18;;;;;;;4.20;1.33;;;34.40;34.20;;;;;;9174378;19;20019;-69
2022/08/12 15:17:26;;;;;;;6.75;1.63;;;34.30;34.20;;;;;;9174808;19;20010;-72
2022/08/12 15:20:42;;;;;;;1.75;1.38;;;34.30;34.30;;;;;;9173141;19;20019;-70
2022/08/12 15:23:47;;;;;;;2.65;1.23;;;34.30;34.30;;;;;;9172581;19;20014;-69
2022/08/12 15:27:03;;;;;;;2.75;1.15;;;34.30;34.40;;;;;;9173768;19;20033;-75
2022/08/12 15:30:16;;;;;;;2.45;1.40;;;34.20;34.20;;;;;;9175597;19;20018;-68
2022/08/12 15:33:28;;;;;;;2.58;1.20;;;34.20;34.20;;;;;;9176203;19;20011;-69
2022/08/12 15:36:50;;;;;;;3.60;1.27;;;34.20;34.30;;;;;;9173165;19;20019;-71
2022/08/12 15:40:01;;;;;;;5.18;1.20;;;34.10;34.30;;;;;;9172094;19;20014;-71
2022/08/12 15:43:14;;;;;;;2.40;1.25;;;34.10;34.20;;;;;;9174539;19;20041;-68
2022/08/12 15:46:39;;;;;;;5.97;1.42;;;34.00;34.20;;;;;;9173970;19;20026;-70
2022/08/12 15:49:47;;;;;;;4.40;1.30;;;34.00;34.40;;;;;;9176048;19;20018;-70
2022/08/12 15:53:06;;;;;;;4.10;1.50;;;34.00;34.40;;;;;;9175617;19;20018;-68
2022/08/12 15:56:20;;;;;;;7.13;1.90;;;33.80;34.30;;;;;;9172212;19;20022;-71
2022/08/12 15:59:38;;;;;;;3.50;1.30;;;33.80;34.40;;;;;;9173240;19;20122;-68
2022/08/12 16:03:06;;;;;;;2.63;1.50;;;33.80;34.40;;;;;;9174073;19;20102;-70
2022/08/12 16:06:18;;;;;;;5.45;1.73;;;33.70;34.40;;;;;;9172978;19;20018;-72
2022/08/12 16:09:46;;;;;;;6.90;1.58;;;33.70;34.50;;;;;;9168782;19;20019;-68
2022/08/12 16:13:17;;;;;;;5.22;1.42;;;33.70;34.60;;;;;;9174150;19;20018;-70
2022/08/12 16:16:40;;;;;;;8.05;1.45;;;33.60;34.50;;;;;;9172080;19;20483;-68
2022/08/12 16:19:45;;;;;;;6.40;1.50;;;33.50;34.50;;;;;;9171118;19;20093;-68
2022/08/12 16:23:10;;;;;;;;;;;33.50;34.50;;;;;;9174808;19;20019;-72
2022/08/12 16:26:35;;;;;;;4.70;1.40;;;33.50;34.70;;;;;;9172403;19;20005;-69
2022/08/12 16:29:41;;;;;;;2.55;1.30;;;33.40;34.70;;;;;;9173973;19;20030;-68
2022/08/12 16:33:08;;;;;;;3.78;1.42;;;33.30;34.50;;;;;;9173283;19;20022;-69
2022/08/12 16:36:14;;;;;;;2.58;1.45;;;33.30;34.50;;;;;;9171995;19;20033;-71
2022/08/12 16:39:23;;;;;;;1.92;1.30;;;33.20;34.50;;;;;;9172174;19;20018;-69
2022/08/12 16:42:28;;;;;;;3.40;1.45;;;33.20;34.60;;;;;;9169854;19;20744;-69
2022/08/12 16:45:38;;;;;;;5.07;1.50;;;33.10;34.50;;;;;;9172901;19;20614;-69
2022/08/12 16:49:06;;;;;;;13.40;1.63;;;33.10;34.60;;;;;;9172594;19;20014;-69
2022/08/12 16:52:20;;;;;;;9.95;1.75;;;33.00;34.70;;;;;;9173222;19;20487;-71
2022/08/12 16:55:26;;;;;;;3.95;1.55;;;32.90;34.70;;;;;;9171214;19;20010;-70
2022/08/12 16:58:42;;;;;;;2.33;1.33;;;32.80;34.70;;;;;;9171325;19;20018;-70
2022/08/12 17:01:48;;;;;;;5.10;1.50;;;32.70;34.60;;;;;;9170134;19;20022;-68
2022/08/12 17:04:58;;;;;;;2.95;1.45;;;32.60;34.60;;;;;;9165913;19;20010;-69
2022/08/12 17:08:10;;;;;;;6.65;1.52;;;32.60;34.60;;;;;;9167380;19;20022;-72
2022/08/12 17:11:19;;;;;;;9.65;1.80;;;32.50;34.60;;;;;;9161717;19;20033;-70
2022/08/12 17:14:27;;;;;;;2.08;1.40;;;32.40;34.80;;;;;;9163981;19;20025;-70
2022/08/12 17:17:40;;;;;;;1.83;1.40;;;32.30;34.80;;;;;;9165734;19;20512;-70
2022/08/12 17:20:49;;;;;;;2.28;1.40;;;32.20;34.80;;;;;;9166329;19;20491;-69
2022/08/12 17:24:00;;;;;;;2.13;1.30;;;32.10;34.80;;;;;;9169775;19;20034;-68
2022/08/12 17:27:08;;;;;;;6.60;1.52;;;32.00;34.80;;;;;;9170787;19;20027;-69
2022/08/12 17:30:20;;;;;;;4.03;1.70;;;32.00;34.90;;;;;;9167110;19;20026;-70
2022/08/12 17:33:31;;;;;;;2.30;1.48;;;31.90;35.00;;;;;;9169020;19;20029;-66
2022/08/12 17:36:42;;;;;;;2.25;1.23;;;31.90;35.10;;;;;;9172428;19;20018;-71
2022/08/12 17:39:52;;;;;;;6.32;1.52;;;31.70;35.00;;;;;;9168874;19;20022;-72
2022/08/12 17:43:18;;;;;;;3.58;1.45;;;31.70;35.10;;;;;;9173033;19;20078;-73
2022/08/12 17:46:44;;;;;;;8.02;1.80;;;31.60;35.20;;;;;;9179141;19;20015;-72
2022/08/12 17:50:01;;;;;;;5.35;1.33;;;31.50;35.20;;;;;;9186237;19;20011;-70
2022/08/12 17:53:11;;;;;;;2.75;1.50;;;31.40;35.30;;;;;;9185989;19;20125;-73
2022/08/12 17:56:18;;;;;;;7.47;1.50;;;31.40;35.40;;;;;;9181815;19;20019;-70
2022/08/12 17:59:24;;;;;;;2.35;1.33;;;31.30;35.60;;;;;;9175636;19;20027;-71
2022/08/12 18:02:50;;;;;;;2.28;1.40;;;31.30;35.70;;;;;;9176489;19;20125;-69
2022/08/12 18:06:00;;;;;;;6.78;1.73;;;31.20;35.80;;;;;;9179378;19;20029;-70
2022/08/12 18:09:16;;;;;;;4.43;1.90;;;31.10;35.80;;;;;;9169635;19;20498;-72
2022/08/12 18:12:37;;;;;;;4.53;1.52;;;31.10;35.90;;;;;;9185636;19;20018;-71
2022/08/12 18:15:44;;;;;;;4.43;1.60;;;31.00;35.90;;;;;;9185202;19;20021;-75
2022/08/12 18:19:09;;;;;;;5.00;1.60;;;30.90;35.90;;;;;;9184242;19;20022;-73
2022/08/12 18:22:16;;;;;;;4.53;1.55;;;30.90;35.90;;;;;;9183619;19;20029;-72
2022/08/12 18:29:08;;;;;;;9.60;1.50;;;30.70;35.80;;;;;;9185070;19;20014;-69
2022/08/12 18:32:15;;;;;;;2.53;1.30;;;30.60;36.00;;;;;;9181367;19;20018;-69
2022/08/12 18:35:41;;;;;;;7.85;1.58;;;30.50;35.90;;;;;;9185586;19;20035;-71
2022/08/12 18:39:00;;;;;;;1.25;1.13;;;30.50;36.00;;;;;;9181562;19;20020;-70